sensor_id;sensor_type;location;lat;lon;timestamp;P1;durP1;ratioP1;P2;durP2;ratioP2
38455;SDS011;24237;50.106;20.014;2023-03-01T00:01:09;89.57;;;34.33;;
38455;SDS011;24237;50.106;20.014;2023-03-01T00:03:37;89.50;;;37.05;;
38455;SDS011;24237;50.106;20.014;2023-03-01T00:06:03;90.88;;;36.08;;
38455;SDS011;24237;50.106;20.014;2023-03-01T00:08:29;89.87;;;36.33;;
38455;SDS011;24237;50.106;20.014;2023-03-01T00:11:03;88.93;;;35.55;;
38455;SDS011;24237;50.106;20.014;2023-03-01T00:13:30;85.85;;;34.95;;
38455;SDS011;24237;50.106;20.014;2023-03-01T00:15:56;84.88;;;35.55;;
38455;SDS011;24237;50.106;20.014;2023-03-01T00:18:22;92.00;;;37.22;;
38455;SDS011;24237;50.106;20.014;2023-03-01T00:20:51;103.65;;;41.35;;
38455;SDS011;24237;50.106;20.014;2023-03-01T00:23:22;87.20;;;36.45;;
38455;SDS011;24237;50.106;20.014;2023-03-01T00:25:48;103.28;;;39.05;;
38455;SDS011;24237;50.106;20.014;2023-03-01T00:28:14;97.20;;;39.03;;
38455;SDS011;24237;50.106;20.014;2023-03-01T00:30:43;95.90;;;38.63;;
38455;SDS011;24237;50.106;20.014;2023-03-01T00:33:08;99.70;;;37.45;;
38455;SDS011;24237;50.106;20.014;2023-03-01T00:35:34;95.13;;;38.55;;
38455;SDS011;24237;50.106;20.014;2023-03-01T00:38:00;97.57;;;37.75;;
38455;SDS011;24237;50.106;20.014;2023-03-01T00:40:28;99.85;;;37.92;;
38455;SDS011;24237;50.106;20.014;2023-03-01T00:45:20;100.32;;;36.92;;
38455;SDS011;24237;50.106;20.014;2023-03-01T00:47:46;101.90;;;39.72;;
38455;SDS011;24237;50.106;20.014;2023-03-01T00:50:13;98.05;;;39.05;;
38455;SDS011;24237;50.106;20.014;2023-03-01T00:52:39;87.70;;;35.78;;
38455;SDS011;24237;50.106;20.014;2023-03-01T00:55:05;92.22;;;36.60;;
38455;SDS011;24237;50.106;20.014;2023-03-01T00:57:31;86.90;;;36.53;;
38455;SDS011;24237;50.106;20.014;2023-03-01T00:59:58;90.40;;;38.30;;
38455;SDS011;24237;50.106;20.014;2023-03-01T01:02:24;92.03;;;37.22;;
38455;SDS011;24237;50.106;20.014;2023-03-01T01:04:49;99.70;;;38.58;;
38455;SDS011;24237;50.106;20.014;2023-03-01T01:07:15;88.43;;;37.17;;
38455;SDS011;24237;50.106;20.014;2023-03-01T01:09:41;98.25;;;38.45;;
38455;SDS011;24237;50.106;20.014;2023-03-01T01:12:07;88.00;;;37.47;;
38455;SDS011;24237;50.106;20.014;2023-03-01T01:14:32;108.15;;;41.92;;
38455;SDS011;24237;50.106;20.014;2023-03-01T01:16:59;112.68;;;44.08;;
38455;SDS011;24237;50.106;20.014;2023-03-01T01:19:25;112.85;;;44.95;;
38455;SDS011;24237;50.106;20.014;2023-03-01T01:21:51;120.10;;;47.30;;
38455;SDS011;24237;50.106;20.014;2023-03-01T01:24:17;111.28;;;43.22;;
38455;SDS011;24237;50.106;20.014;2023-03-01T01:26:43;98.75;;;40.40;;
38455;SDS011;24237;50.106;20.014;2023-03-01T01:29:10;103.82;;;40.92;;
38455;SDS011;24237;50.106;20.014;2023-03-01T01:31:37;103.30;;;41.53;;
38455;SDS011;24237;50.106;20.014;2023-03-01T01:34:05;107.28;;;43.15;;
38455;SDS011;24237;50.106;20.014;2023-03-01T01:36:33;100.28;;;41.92;;
38455;SDS011;24237;50.106;20.014;2023-03-01T01:38:59;106.03;;;43.80;;
38455;SDS011;24237;50.106;20.014;2023-03-01T01:41:26;104.65;;;40.95;;
38455;SDS011;24237;50.106;20.014;2023-03-01T01:44:13;110.15;;;42.97;;
38455;SDS011;24237;50.106;20.014;2023-03-01T01:49:27;108.95;;;43.67;;
38455;SDS011;24237;50.106;20.014;2023-03-01T01:51:58;102.93;;;41.47;;
38455;SDS011;24237;50.106;20.014;2023-03-01T01:54:53;99.00;;;41.88;;
38455;SDS011;24237;50.106;20.014;2023-03-01T01:57:27;109.03;;;43.08;;
38455;SDS011;24237;50.106;20.014;2023-03-01T01:59:59;105.30;;;45.15;;
38455;SDS011;24237;50.106;20.014;2023-03-01T02:02:29;111.72;;;43.00;;
38455;SDS011;24237;50.106;20.014;2023-03-01T02:05:01;105.65;;;42.10;;
38455;SDS011;24237;50.106;20.014;2023-03-01T02:07:35;124.07;;;50.25;;
38455;SDS011;24237;50.106;20.014;2023-03-01T02:10:04;135.88;;;53.47;;
38455;SDS011;24237;50.106;20.014;2023-03-01T02:12:30;157.57;;;59.67;;
38455;SDS011;24237;50.106;20.014;2023-03-01T02:14:57;124.38;;;47.10;;
38455;SDS011;24237;50.106;20.014;2023-03-01T02:17:22;123.30;;;45.00;;
38455;SDS011;24237;50.106;20.014;2023-03-01T02:22:33;121.53;;;46.13;;
38455;SDS011;24237;50.106;20.014;2023-03-01T02:25:04;111.75;;;44.92;;
38455;SDS011;24237;50.106;20.014;2023-03-01T02:28:00;117.20;;;46.30;;
38455;SDS011;24237;50.106;20.014;2023-03-01T02:30:38;115.95;;;47.38;;
38455;SDS011;24237;50.106;20.014;2023-03-01T02:33:25;108.43;;;45.15;;
38455;SDS011;24237;50.106;20.014;2023-03-01T02:35:51;114.07;;;44.17;;
38455;SDS011;24237;50.106;20.014;2023-03-01T02:38:19;110.93;;;44.03;;
38455;SDS011;24237;50.106;20.014;2023-03-01T02:40:45;114.47;;;45.03;;
38455;SDS011;24237;50.106;20.014;2023-03-01T02:43:12;114.05;;;43.05;;
38455;SDS011;24237;50.106;20.014;2023-03-01T02:45:50;111.97;;;45.92;;
38455;SDS011;24237;50.106;20.014;2023-03-01T02:48:17;117.43;;;46.75;;
38455;SDS011;24237;50.106;20.014;2023-03-01T02:50:59;108.97;;;43.65;;
38455;SDS011;24237;50.106;20.014;2023-03-01T02:53:48;102.55;;;44.25;;
38455;SDS011;24237;50.106;20.014;2023-03-01T02:56:21;113.63;;;45.03;;
38455;SDS011;24237;50.106;20.014;2023-03-01T02:58:47;113.70;;;44.38;;
38455;SDS011;24237;50.106;20.014;2023-03-01T03:01:16;106.03;;;43.28;;
38455;SDS011;24237;50.106;20.014;2023-03-01T03:03:43;107.10;;;43.17;;
38455;SDS011;24237;50.106;20.014;2023-03-01T03:06:08;96.78;;;40.92;;
38455;SDS011;24237;50.106;20.014;2023-03-01T03:08:34;105.68;;;41.67;;
38455;SDS011;24237;50.106;20.014;2023-03-01T03:11:00;109.53;;;44.00;;
38455;SDS011;24237;50.106;20.014;2023-03-01T03:13:25;108.13;;;42.95;;
38455;SDS011;24237;50.106;20.014;2023-03-01T03:15:53;111.03;;;44.13;;
38455;SDS011;24237;50.106;20.014;2023-03-01T03:18:20;100.40;;;43.22;;
38455;SDS011;24237;50.106;20.014;2023-03-01T03:20:47;122.07;;;47.10;;
38455;SDS011;24237;50.106;20.014;2023-03-01T03:23:17;106.35;;;43.83;;
38455;SDS011;24237;50.106;20.014;2023-03-01T03:25:43;110.00;;;42.75;;
38455;SDS011;24237;50.106;20.014;2023-03-01T03:28:09;102.47;;;41.20;;
38455;SDS011;24237;50.106;20.014;2023-03-01T03:30:36;105.72;;;44.78;;
38455;SDS011;24237;50.106;20.014;2023-03-01T03:33:04;108.20;;;44.10;;
38455;SDS011;24237;50.106;20.014;2023-03-01T03:35:32;106.10;;;44.08;;
38455;SDS011;24237;50.106;20.014;2023-03-01T03:38:09;99.57;;;42.20;;
38455;SDS011;24237;50.106;20.014;2023-03-01T03:40:50;95.18;;;40.13;;
38455;SDS011;24237;50.106;20.014;2023-03-01T03:43:45;104.07;;;42.20;;
38455;SDS011;24237;50.106;20.014;2023-03-01T03:46:11;103.22;;;40.42;;
38455;SDS011;24237;50.106;20.014;2023-03-01T03:48:37;113.85;;;45.15;;
38455;SDS011;24237;50.106;20.014;2023-03-01T03:51:05;109.22;;;43.28;;
38455;SDS011;24237;50.106;20.014;2023-03-01T03:53:32;98.90;;;42.30;;
38455;SDS011;24237;50.106;20.014;2023-03-01T03:55:58;114.55;;;43.80;;
38455;SDS011;24237;50.106;20.014;2023-03-01T03:58:24;108.13;;;42.83;;
38455;SDS011;24237;50.106;20.014;2023-03-01T04:00:52;107.90;;;42.28;;
38455;SDS011;24237;50.106;20.014;2023-03-01T04:03:20;106.70;;;41.65;;
38455;SDS011;24237;50.106;20.014;2023-03-01T04:05:47;97.82;;;38.70;;
38455;SDS011;24237;50.106;20.014;2023-03-01T04:08:15;97.72;;;39.83;;
38455;SDS011;24237;50.106;20.014;2023-03-01T04:10:45;93.22;;;37.53;;
38455;SDS011;24237;50.106;20.014;2023-03-01T04:13:13;100.72;;;38.20;;
38455;SDS011;24237;50.106;20.014;2023-03-01T04:15:45;103.90;;;41.55;;
38455;SDS011;24237;50.106;20.014;2023-03-01T04:18:12;102.35;;;40.55;;
38455;SDS011;24237;50.106;20.014;2023-03-01T04:20:38;107.13;;;43.20;;
38455;SDS011;24237;50.106;20.014;2023-03-01T04:23:05;99.38;;;41.20;;
38455;SDS011;24237;50.106;20.014;2023-03-01T04:25:38;103.28;;;40.25;;
38455;SDS011;24237;50.106;20.014;2023-03-01T04:30:49;96.90;;;38.17;;
38455;SDS011;24237;50.106;20.014;2023-03-01T04:33:14;87.05;;;35.65;;
38455;SDS011;24237;50.106;20.014;2023-03-01T04:35:40;89.22;;;36.03;;
38455;SDS011;24237;50.106;20.014;2023-03-01T04:38:05;93.47;;;38.35;;
38455;SDS011;24237;50.106;20.014;2023-03-01T04:40:31;93.85;;;37.78;;
38455;SDS011;24237;50.106;20.014;2023-03-01T04:42:57;85.30;;;37.90;;
38455;SDS011;24237;50.106;20.014;2023-03-01T04:45:23;95.60;;;38.70;;
38455;SDS011;24237;50.106;20.014;2023-03-01T04:47:49;89.53;;;37.42;;
38455;SDS011;24237;50.106;20.014;2023-03-01T04:50:17;92.68;;;37.80;;
38455;SDS011;24237;50.106;20.014;2023-03-01T04:52:45;89.10;;;36.28;;
38455;SDS011;24237;50.106;20.014;2023-03-01T04:55:12;108.07;;;41.40;;
38455;SDS011;24237;50.106;20.014;2023-03-01T04:57:38;100.22;;;37.83;;
38455;SDS011;24237;50.106;20.014;2023-03-01T05:00:05;94.30;;;37.70;;
38455;SDS011;24237;50.106;20.014;2023-03-01T05:02:45;104.60;;;39.53;;
38455;SDS011;24237;50.106;20.014;2023-03-01T05:05:18;99.35;;;41.15;;
38455;SDS011;24237;50.106;20.014;2023-03-01T05:07:44;110.57;;;41.83;;
38455;SDS011;24237;50.106;20.014;2023-03-01T05:10:10;102.20;;;40.83;;
38455;SDS011;24237;50.106;20.014;2023-03-01T05:12:36;94.13;;;37.65;;
38455;SDS011;24237;50.106;20.014;2023-03-01T05:15:02;94.97;;;36.95;;
38455;SDS011;24237;50.106;20.014;2023-03-01T05:17:31;104.28;;;41.20;;
38455;SDS011;24237;50.106;20.014;2023-03-01T05:19:58;109.82;;;40.65;;
38455;SDS011;24237;50.106;20.014;2023-03-01T05:22:24;97.90;;;39.45;;
38455;SDS011;24237;50.106;20.014;2023-03-01T05:24:50;103.38;;;39.92;;
38455;SDS011;24237;50.106;20.014;2023-03-01T05:27:16;99.75;;;41.17;;
38455;SDS011;24237;50.106;20.014;2023-03-01T05:29:41;96.18;;;40.58;;
38455;SDS011;24237;50.106;20.014;2023-03-01T05:32:07;104.82;;;42.13;;
38455;SDS011;24237;50.106;20.014;2023-03-01T05:34:34;105.25;;;41.45;;
38455;SDS011;24237;50.106;20.014;2023-03-01T05:37:01;106.25;;;42.22;;
38455;SDS011;24237;50.106;20.014;2023-03-01T05:39:28;116.95;;;44.85;;
38455;SDS011;24237;50.106;20.014;2023-03-01T05:41:55;137.00;;;51.83;;
38455;SDS011;24237;50.106;20.014;2023-03-01T05:44:22;119.30;;;44.72;;
38455;SDS011;24237;50.106;20.014;2023-03-01T05:46:48;121.72;;;42.95;;
38455;SDS011;24237;50.106;20.014;2023-03-01T05:49:14;150.52;;;55.63;;
38455;SDS011;24237;50.106;20.014;2023-03-01T05:51:40;108.32;;;44.58;;
38455;SDS011;24237;50.106;20.014;2023-03-01T05:54:07;107.28;;;45.38;;
38455;SDS011;24237;50.106;20.014;2023-03-01T05:56:36;110.93;;;43.38;;
38455;SDS011;24237;50.106;20.014;2023-03-01T05:59:02;109.10;;;43.08;;
38455;SDS011;24237;50.106;20.014;2023-03-01T06:01:30;108.20;;;45.17;;
38455;SDS011;24237;50.106;20.014;2023-03-01T06:03:56;106.40;;;45.22;;
38455;SDS011;24237;50.106;20.014;2023-03-01T06:06:22;107.03;;;43.25;;
38455;SDS011;24237;50.106;20.014;2023-03-01T06:08:48;104.35;;;42.17;;
38455;SDS011;24237;50.106;20.014;2023-03-01T06:11:13;106.78;;;46.25;;
38455;SDS011;24237;50.106;20.014;2023-03-01T06:13:40;118.57;;;45.78;;
38455;SDS011;24237;50.106;20.014;2023-03-01T06:16:09;105.38;;;45.72;;
38455;SDS011;24237;50.106;20.014;2023-03-01T06:18:35;120.03;;;45.08;;
38455;SDS011;24237;50.106;20.014;2023-03-01T06:21:02;143.43;;;49.70;;
38455;SDS011;24237;50.106;20.014;2023-03-01T06:23:27;140.27;;;54.85;;
38455;SDS011;24237;50.106;20.014;2023-03-01T06:25:53;135.68;;;54.40;;
38455;SDS011;24237;50.106;20.014;2023-03-01T06:28:18;151.32;;;57.90;;
38455;SDS011;24237;50.106;20.014;2023-03-01T06:30:44;150.18;;;58.10;;
38455;SDS011;24237;50.106;20.014;2023-03-01T06:33:10;145.55;;;56.72;;
38455;SDS011;24237;50.106;20.014;2023-03-01T06:35:35;140.05;;;54.40;;
38455;SDS011;24237;50.106;20.014;2023-03-01T06:38:02;137.20;;;55.03;;
38455;SDS011;24237;50.106;20.014;2023-03-01T06:40:28;143.05;;;55.35;;
38455;SDS011;24237;50.106;20.014;2023-03-01T06:45:21;118.15;;;45.45;;
38455;SDS011;24237;50.106;20.014;2023-03-01T06:47:48;94.25;;;40.72;;
38455;SDS011;24237;50.106;20.014;2023-03-01T06:50:14;108.30;;;42.28;;
38455;SDS011;24237;50.106;20.014;2023-03-01T06:52:40;98.70;;;42.40;;
38455;SDS011;24237;50.106;20.014;2023-03-01T06:55:06;109.00;;;44.88;;
38455;SDS011;24237;50.106;20.014;2023-03-01T06:57:32;110.72;;;43.17;;
38455;SDS011;24237;50.106;20.014;2023-03-01T06:59:58;107.22;;;43.90;;
38455;SDS011;24237;50.106;20.014;2023-03-01T07:02:24;100.55;;;40.90;;
38455;SDS011;24237;50.106;20.014;2023-03-01T07:04:50;102.25;;;42.15;;
38455;SDS011;24237;50.106;20.014;2023-03-01T07:07:16;93.00;;;40.75;;
38455;SDS011;24237;50.106;20.014;2023-03-01T07:09:43;87.63;;;38.08;;
38455;SDS011;24237;50.106;20.014;2023-03-01T07:12:12;90.20;;;37.03;;
38455;SDS011;24237;50.106;20.014;2023-03-01T07:14:37;88.50;;;37.58;;
38455;SDS011;24237;50.106;20.014;2023-03-01T07:17:03;79.78;;;36.05;;
38455;SDS011;24237;50.106;20.014;2023-03-01T07:19:28;90.85;;;37.65;;
38455;SDS011;24237;50.106;20.014;2023-03-01T07:21:54;91.55;;;37.45;;
38455;SDS011;24237;50.106;20.014;2023-03-01T07:24:20;76.47;;;35.30;;
38455;SDS011;24237;50.106;20.014;2023-03-01T07:26:50;83.30;;;36.10;;
38455;SDS011;24237;50.106;20.014;2023-03-01T07:29:16;79.75;;;34.60;;
38455;SDS011;24237;50.106;20.014;2023-03-01T07:31:42;79.50;;;33.35;;
38455;SDS011;24237;50.106;20.014;2023-03-01T07:34:08;93.72;;;37.05;;
38455;SDS011;24237;50.106;20.014;2023-03-01T07:36:33;99.88;;;38.58;;
38455;SDS011;24237;50.106;20.014;2023-03-01T07:38:59;94.82;;;37.92;;
38455;SDS011;24237;50.106;20.014;2023-03-01T07:41:27;88.03;;;39.28;;
38455;SDS011;24237;50.106;20.014;2023-03-01T07:43:52;97.47;;;37.67;;
38455;SDS011;24237;50.106;20.014;2023-03-01T07:46:18;96.05;;;39.15;;
38455;SDS011;24237;50.106;20.014;2023-03-01T07:48:44;87.65;;;37.60;;
38455;SDS011;24237;50.106;20.014;2023-03-01T07:51:10;87.90;;;38.50;;
38455;SDS011;24237;50.106;20.014;2023-03-01T07:53:36;89.13;;;38.47;;
38455;SDS011;24237;50.106;20.014;2023-03-01T07:56:07;83.90;;;38.42;;
38455;SDS011;24237;50.106;20.014;2023-03-01T07:58:35;89.97;;;36.03;;
38455;SDS011;24237;50.106;20.014;2023-03-01T08:01:03;88.03;;;35.20;;
38455;SDS011;24237;50.106;20.014;2023-03-01T08:03:33;111.40;;;43.35;;
38455;SDS011;24237;50.106;20.014;2023-03-01T08:06:00;101.50;;;42.17;;
38455;SDS011;24237;50.106;20.014;2023-03-01T08:08:26;94.85;;;39.05;;
38455;SDS011;24237;50.106;20.014;2023-03-01T08:10:52;78.22;;;36.33;;
38455;SDS011;24237;50.106;20.014;2023-03-01T08:13:21;90.63;;;37.22;;
38455;SDS011;24237;50.106;20.014;2023-03-01T08:15:50;106.55;;;38.65;;
38455;SDS011;24237;50.106;20.014;2023-03-01T08:18:16;90.25;;;36.00;;
38455;SDS011;24237;50.106;20.014;2023-03-01T08:20:43;93.10;;;36.15;;
38455;SDS011;24237;50.106;20.014;2023-03-01T08:23:08;83.97;;;35.35;;
38455;SDS011;24237;50.106;20.014;2023-03-01T08:25:34;92.78;;;36.90;;
38455;SDS011;24237;50.106;20.014;2023-03-01T08:27:59;77.88;;;34.03;;
38455;SDS011;24237;50.106;20.014;2023-03-01T08:30:25;75.40;;;34.00;;
38455;SDS011;24237;50.106;20.014;2023-03-01T08:32:51;77.05;;;33.55;;
38455;SDS011;24237;50.106;20.014;2023-03-01T08:35:16;83.65;;;34.75;;
38455;SDS011;24237;50.106;20.014;2023-03-01T08:37:43;78.60;;;33.92;;
38455;SDS011;24237;50.106;20.014;2023-03-01T08:40:09;76.43;;;32.25;;
38455;SDS011;24237;50.106;20.014;2023-03-01T08:42:36;78.10;;;34.40;;
38455;SDS011;24237;50.106;20.014;2023-03-01T08:45:05;74.65;;;33.00;;
38455;SDS011;24237;50.106;20.014;2023-03-01T08:47:32;75.10;;;33.42;;
38455;SDS011;24237;50.106;20.014;2023-03-01T08:49:58;79.97;;;31.40;;
38455;SDS011;24237;50.106;20.014;2023-03-01T08:52:25;71.60;;;31.25;;
38455;SDS011;24237;50.106;20.014;2023-03-01T08:54:51;68.88;;;29.90;;
38455;SDS011;24237;50.106;20.014;2023-03-01T08:57:17;67.97;;;29.50;;
38455;SDS011;24237;50.106;20.014;2023-03-01T08:59:43;66.10;;;27.10;;
38455;SDS011;24237;50.106;20.014;2023-03-01T09:02:13;68.78;;;27.92;;
38455;SDS011;24237;50.106;20.014;2023-03-01T09:04:43;53.00;;;20.00;;
38455;SDS011;24237;50.106;20.014;2023-03-01T09:07:09;43.00;;;19.25;;
38455;SDS011;24237;50.106;20.014;2023-03-01T09:09:35;54.95;;;22.50;;
38455;SDS011;24237;50.106;20.014;2023-03-01T09:12:01;61.92;;;24.10;;
38455;SDS011;24237;50.106;20.014;2023-03-01T09:14:27;59.65;;;24.63;;
38455;SDS011;24237;50.106;20.014;2023-03-01T09:16:53;44.20;;;19.20;;
38455;SDS011;24237;50.106;20.014;2023-03-01T09:19:19;34.70;;;15.50;;
38455;SDS011;24237;50.106;20.014;2023-03-01T09:21:44;47.17;;;17.27;;
38455;SDS011;24237;50.106;20.014;2023-03-01T09:24:17;33.08;;;15.55;;
38455;SDS011;24237;50.106;20.014;2023-03-01T09:26:44;39.13;;;15.10;;
38455;SDS011;24237;50.106;20.014;2023-03-01T09:29:13;39.13;;;15.68;;
38455;SDS011;24237;50.106;20.014;2023-03-01T09:31:39;42.20;;;15.83;;
38455;SDS011;24237;50.106;20.014;2023-03-01T09:34:06;46.40;;;17.35;;
38455;SDS011;24237;50.106;20.014;2023-03-01T09:36:32;50.40;;;17.63;;
38455;SDS011;24237;50.106;20.014;2023-03-01T09:39:04;38.40;;;16.77;;
38455;SDS011;24237;50.106;20.014;2023-03-01T09:44:18;38.60;;;16.93;;
38455;SDS011;24237;50.106;20.014;2023-03-01T09:47:05;34.08;;;15.50;;
38455;SDS011;24237;50.106;20.014;2023-03-01T09:49:36;31.75;;;14.45;;
38455;SDS011;24237;50.106;20.014;2023-03-01T09:52:12;37.65;;;14.40;;
38455;SDS011;24237;50.106;20.014;2023-03-01T09:54:52;35.70;;;13.75;;
38455;SDS011;24237;50.106;20.014;2023-03-01T09:57:33;33.17;;;15.75;;
38455;SDS011;24237;50.106;20.014;2023-03-01T10:03:01;35.72;;;16.52;;
38455;SDS011;24237;50.106;20.014;2023-03-01T10:08:34;38.92;;;17.50;;
38455;SDS011;24237;50.106;20.014;2023-03-01T10:11:04;37.88;;;18.13;;
38455;SDS011;24237;50.106;20.014;2023-03-01T10:19:18;45.20;;;18.20;;
38455;SDS011;24237;50.106;20.014;2023-03-01T10:21:52;37.55;;;16.45;;
38455;SDS011;24237;50.106;20.014;2023-03-01T10:24:19;33.33;;;14.68;;
38455;SDS011;24237;50.106;20.014;2023-03-01T10:26:58;32.72;;;15.10;;
38455;SDS011;24237;50.106;20.014;2023-03-01T10:29:30;34.78;;;15.38;;
38455;SDS011;24237;50.106;20.014;2023-03-01T10:32:04;27.95;;;13.95;;
38455;SDS011;24237;50.106;20.014;2023-03-01T10:34:32;35.53;;;15.65;;
38455;SDS011;24237;50.106;20.014;2023-03-01T10:37:01;34.70;;;14.80;;
38455;SDS011;24237;50.106;20.014;2023-03-01T10:39:35;39.50;;;18.75;;
38455;SDS011;24237;50.106;20.014;2023-03-01T10:42:01;33.63;;;16.42;;
38455;SDS011;24237;50.106;20.014;2023-03-01T10:47:05;45.80;;;19.20;;
38455;SDS011;24237;50.106;20.014;2023-03-01T10:49:56;51.17;;;20.90;;
38455;SDS011;24237;50.106;20.014;2023-03-01T10:52:27;45.03;;;19.92;;
38455;SDS011;24237;50.106;20.014;2023-03-01T10:57:43;48.58;;;21.77;;
38455;SDS011;24237;50.106;20.014;2023-03-01T11:00:19;54.33;;;23.85;;
38455;SDS011;24237;50.106;20.014;2023-03-01T11:03:10;53.00;;;24.48;;
38455;SDS011;24237;50.106;20.014;2023-03-01T11:08:32;69.07;;;27.05;;
38455;SDS011;24237;50.106;20.014;2023-03-01T11:13:52;60.03;;;26.35;;
38455;SDS011;24237;50.106;20.014;2023-03-01T11:19:14;50.00;;;24.67;;
38455;SDS011;24237;50.106;20.014;2023-03-01T11:21:43;51.05;;;24.33;;
38455;SDS011;24237;50.106;20.014;2023-03-01T11:24:18;62.50;;;25.15;;
38455;SDS011;24237;50.106;20.014;2023-03-01T11:26:50;56.65;;;27.23;;
38455;SDS011;24237;50.106;20.014;2023-03-01T11:32:06;57.08;;;26.30;;
38455;SDS011;24237;50.106;20.014;2023-03-01T11:34:42;52.28;;;24.05;;
38455;SDS011;24237;50.106;20.014;2023-03-01T11:39:43;49.30;;;21.58;;
38455;SDS011;24237;50.106;20.014;2023-03-01T11:42:21;41.53;;;22.25;;
38455;SDS011;24237;50.106;20.014;2023-03-01T11:44:56;53.78;;;24.85;;
38455;SDS011;24237;50.106;20.014;2023-03-01T11:47:38;46.53;;;22.42;;
38455;SDS011;24237;50.106;20.014;2023-03-01T11:56:20;44.28;;;18.73;;
38455;SDS011;24237;50.106;20.014;2023-03-01T12:10:27;44.53;;;19.95;;
38455;SDS011;24237;50.106;20.014;2023-03-01T12:21:29;37.22;;;18.58;;
38455;SDS011;24237;50.106;20.014;2023-03-01T12:29:34;36.35;;;18.67;;
38455;SDS011;24237;50.106;20.014;2023-03-01T12:32:40;38.15;;;20.42;;
38455;SDS011;24237;50.106;20.014;2023-03-01T12:35:24;41.33;;;21.42;;
38455;SDS011;24237;50.106;20.014;2023-03-01T12:37:54;36.88;;;19.65;;
38455;SDS011;24237;50.106;20.014;2023-03-01T12:40:33;42.40;;;21.48;;
38455;SDS011;24237;50.106;20.014;2023-03-01T12:46:18;42.63;;;20.88;;
38455;SDS011;24237;50.106;20.014;2023-03-01T12:48:47;41.60;;;20.52;;
38455;SDS011;24237;50.106;20.014;2023-03-01T12:51:24;36.30;;;19.10;;
38455;SDS011;24237;50.106;20.014;2023-03-01T12:53:53;34.40;;;17.80;;
38455;SDS011;24237;50.106;20.014;2023-03-01T12:56:21;37.90;;;18.92;;
38455;SDS011;24237;50.106;20.014;2023-03-01T13:07:41;35.83;;;20.35;;
38455;SDS011;24237;50.106;20.014;2023-03-01T13:10:40;41.33;;;20.33;;
38455;SDS011;24237;50.106;20.014;2023-03-01T13:13:20;41.22;;;19.83;;
38455;SDS011;24237;50.106;20.014;2023-03-01T13:15:47;43.60;;;22.55;;
38455;SDS011;24237;50.106;20.014;2023-03-01T13:20:48;38.63;;;18.50;;
38455;SDS011;24237;50.106;20.014;2023-03-01T13:29:00;34.17;;;19.08;;
38455;SDS011;24237;50.106;20.014;2023-03-01T13:34:39;35.22;;;17.83;;
38455;SDS011;24237;50.106;20.014;2023-03-01T13:37:08;35.40;;;18.90;;
38455;SDS011;24237;50.106;20.014;2023-03-01T13:39:39;33.53;;;18.17;;
38455;SDS011;24237;50.106;20.014;2023-03-01T13:42:28;32.97;;;17.20;;
38455;SDS011;24237;50.106;20.014;2023-03-01T13:45:02;39.10;;;16.42;;
38455;SDS011;24237;50.106;20.014;2023-03-01T13:47:30;29.52;;;14.35;;
38455;SDS011;24237;50.106;20.014;2023-03-01T13:50:02;29.05;;;13.38;;
38455;SDS011;24237;50.106;20.014;2023-03-01T13:54:57;27.88;;;14.13;;
38455;SDS011;24237;50.106;20.014;2023-03-01T13:57:26;29.70;;;15.07;;
38455;SDS011;24237;50.106;20.014;2023-03-01T13:59:57;38.70;;;15.95;;
38455;SDS011;24237;50.106;20.014;2023-03-01T14:02:22;29.42;;;14.63;;
38455;SDS011;24237;50.106;20.014;2023-03-01T14:04:57;26.60;;;14.50;;
38455;SDS011;24237;50.106;20.014;2023-03-01T14:07:25;30.10;;;16.42;;
38455;SDS011;24237;50.106;20.014;2023-03-01T14:09:55;32.65;;;16.27;;
38455;SDS011;24237;50.106;20.014;2023-03-01T14:15:07;28.23;;;15.65;;
38455;SDS011;24237;50.106;20.014;2023-03-01T14:20:25;25.05;;;14.18;;
38455;SDS011;24237;50.106;20.014;2023-03-01T14:22:54;24.40;;;13.57;;
38455;SDS011;24237;50.106;20.014;2023-03-01T14:27:57;25.92;;;14.00;;
38455;SDS011;24237;50.106;20.014;2023-03-01T14:30:27;22.83;;;12.85;;
38455;SDS011;24237;50.106;20.014;2023-03-01T14:32:57;25.55;;;12.43;;
38455;SDS011;24237;50.106;20.014;2023-03-01T14:35:34;23.98;;;14.38;;
38455;SDS011;24237;50.106;20.014;2023-03-01T14:38:01;31.73;;;14.52;;
38455;SDS011;24237;50.106;20.014;2023-03-01T14:40:28;31.98;;;14.82;;
38455;SDS011;24237;50.106;20.014;2023-03-01T14:43:01;38.22;;;14.50;;
38455;SDS011;24237;50.106;20.014;2023-03-01T14:45:34;31.83;;;14.63;;
38455;SDS011;24237;50.106;20.014;2023-03-01T14:48:01;28.98;;;14.30;;
38455;SDS011;24237;50.106;20.014;2023-03-01T14:50:34;30.02;;;15.48;;
38455;SDS011;24237;50.106;20.014;2023-03-01T14:53:07;25.05;;;13.98;;
38455;SDS011;24237;50.106;20.014;2023-03-01T14:55:54;27.33;;;15.65;;
38455;SDS011;24237;50.106;20.014;2023-03-01T14:58:23;28.38;;;15.85;;
38455;SDS011;24237;50.106;20.014;2023-03-01T15:00:57;30.65;;;13.20;;
38455;SDS011;24237;50.106;20.014;2023-03-01T15:03:33;35.67;;;14.85;;
38455;SDS011;24237;50.106;20.014;2023-03-01T15:06:04;27.15;;;14.80;;
38455;SDS011;24237;50.106;20.014;2023-03-01T15:08:32;29.48;;;14.93;;
38455;SDS011;24237;50.106;20.014;2023-03-01T15:14:27;27.63;;;15.43;;
38455;SDS011;24237;50.106;20.014;2023-03-01T15:16:55;29.42;;;15.50;;
38455;SDS011;24237;50.106;20.014;2023-03-01T15:19:21;28.05;;;14.68;;
38455;SDS011;24237;50.106;20.014;2023-03-01T15:21:51;38.78;;;16.02;;
38455;SDS011;24237;50.106;20.014;2023-03-01T15:24:19;28.75;;;14.32;;
38455;SDS011;24237;50.106;20.014;2023-03-01T15:26:56;29.67;;;14.65;;
38455;SDS011;24237;50.106;20.014;2023-03-01T15:29:33;32.45;;;13.65;;
38455;SDS011;24237;50.106;20.014;2023-03-01T15:34:55;21.80;;;11.95;;
38455;SDS011;24237;50.106;20.014;2023-03-01T15:40:19;28.38;;;12.57;;
38455;SDS011;24237;50.106;20.014;2023-03-01T15:42:56;27.73;;;12.77;;
38455;SDS011;24237;50.106;20.014;2023-03-01T15:45:34;28.38;;;12.27;;
38455;SDS011;24237;50.106;20.014;2023-03-01T15:48:03;26.10;;;12.57;;
38455;SDS011;24237;50.106;20.014;2023-03-01T15:50:57;21.92;;;11.57;;
38455;SDS011;24237;50.106;20.014;2023-03-01T15:53:24;31.13;;;14.32;;
38455;SDS011;24237;50.106;20.014;2023-03-01T15:55:52;30.98;;;12.25;;
38455;SDS011;24237;50.106;20.014;2023-03-01T15:58:18;26.52;;;12.80;;
38455;SDS011;24237;50.106;20.014;2023-03-01T16:00:49;25.38;;;12.30;;
38455;SDS011;24237;50.106;20.014;2023-03-01T16:03:23;27.77;;;12.98;;
38455;SDS011;24237;50.106;20.014;2023-03-01T16:05:52;32.22;;;13.48;;
38455;SDS011;24237;50.106;20.014;2023-03-01T16:08:18;23.67;;;12.20;;
38455;SDS011;24237;50.106;20.014;2023-03-01T16:10:45;33.60;;;12.95;;
38455;SDS011;24237;50.106;20.014;2023-03-01T16:13:13;25.65;;;12.48;;
38455;SDS011;24237;50.106;20.014;2023-03-01T16:15:39;32.08;;;14.05;;
38455;SDS011;24237;50.106;20.014;2023-03-01T16:18:05;30.38;;;11.98;;